sensor_id;sensor_type;location;lat;lon;timestamp;P1;durP1;ratioP1;P2;durP2;ratioP2
4313;SDS011;2170;48.794;9.182;2024-03-23T00:55:05;9.57;;;8.57;;
4313;SDS011;2170;48.794;9.182;2024-03-23T00:57:32;12.00;;;9.90;;
4313;SDS011;2170;48.794;9.182;2024-03-23T00:59:58;11.30;;;8.97;;
4313;SDS011;2170;48.794;9.182;2024-03-23T01:02:25;11.30;;;10.20;;
4313;SDS011;2170;48.794;9.182;2024-03-23T01:04:51;9.43;;;8.53;;
4313;SDS011;2170;48.794;9.182;2024-03-23T01:07:17;9.67;;;8.77;;
4313;SDS011;2170;48.794;9.182;2024-03-23T01:09:43;8.80;;;8.00;;
4313;SDS011;2170;48.794;9.182;2024-03-23T01:12:11;9.63;;;8.67;;
4313;SDS011;2170;48.794;9.182;2024-03-23T01:14:37;9.50;;;8.63;;
4313;SDS011;2170;48.794;9.182;2024-03-23T01:17:03;9.17;;;8.37;;
4313;SDS011;2170;48.794;9.182;2024-03-23T01:19:29;8.50;;;7.80;;
4313;SDS011;2170;48.794;9.182;2024-03-23T01:21:56;8.07;;;7.27;;
4313;SDS011;2170;48.794;9.182;2024-03-23T01:24:21;8.63;;;7.70;;
4313;SDS011;2170;48.794;9.182;2024-03-23T01:26:48;7.53;;;6.83;;
4313;SDS011;2170;48.794;9.182;2024-03-23T01:29:15;6.90;;;6.30;;
4313;SDS011;2170;48.794;9.182;2024-03-23T01:31:42;8.10;;;6.60;;
4313;SDS011;2170;48.794;9.182;2024-03-23T01:34:07;7.43;;;6.10;;
4313;SDS011;2170;48.794;9.182;2024-03-23T01:36:34;6.50;;;5.90;;
4313;SDS011;2170;48.794;9.182;2024-03-23T01:39:00;8.73;;;6.03;;
4313;SDS011;2170;48.794;9.182;2024-03-23T01:41:26;7.20;;;6.60;;
4313;SDS011;2170;48.794;9.182;2024-03-23T01:43:52;7.40;;;6.70;;
4313;SDS011;2170;48.794;9.182;2024-03-23T01:46:23;5.73;;;5.23;;
4313;SDS011;2170;48.794;9.182;2024-03-23T01:48:48;5.07;;;4.60;;
4313;SDS011;2170;48.794;9.182;2024-03-23T01:51:16;4.83;;;4.23;;
4313;SDS011;2170;48.794;9.182;2024-03-23T01:53:42;5.70;;;5.30;;
4313;SDS011;2170;48.794;9.182;2024-03-23T01:56:08;4.93;;;4.33;;
4313;SDS011;2170;48.794;9.182;2024-03-23T01:58:34;4.23;;;3.93;;
4313;SDS011;2170;48.794;9.182;2024-03-23T02:01:01;3.97;;;3.63;;
4313;SDS011;2170;48.794;9.182;2024-03-23T02:03:28;4.40;;;4.00;;
4313;SDS011;2170;48.794;9.182;2024-03-23T02:05:55;5.70;;;4.20;;
4313;SDS011;2170;48.794;9.182;2024-03-23T02:08:23;4.10;;;3.80;;
4313;SDS011;2170;48.794;9.182;2024-03-23T02:10:50;3.97;;;3.67;;
4313;SDS011;2170;48.794;9.182;2024-03-23T02:13:17;3.70;;;3.40;;
4313;SDS011;2170;48.794;9.182;2024-03-23T02:15:44;3.80;;;3.50;;
4313;SDS011;2170;48.794;9.182;2024-03-23T02:18:10;4.30;;;3.70;;
4313;SDS011;2170;48.794;9.182;2024-03-23T02:20:38;4.93;;;4.10;;
4313;SDS011;2170;48.794;9.182;2024-03-23T02:23:05;4.20;;;3.90;;
4313;SDS011;2170;48.794;9.182;2024-03-23T02:25:39;4.67;;;3.67;;
4313;SDS011;2170;48.794;9.182;2024-03-23T02:28:05;3.73;;;3.43;;
4313;SDS011;2170;48.794;9.182;2024-03-23T02:30:31;5.00;;;4.07;;
4313;SDS011;2170;48.794;9.182;2024-03-23T02:32:57;4.27;;;3.90;;
4313;SDS011;2170;48.794;9.182;2024-03-23T02:35:24;4.23;;;3.83;;
4313;SDS011;2170;48.794;9.182;2024-03-23T02:37:50;3.90;;;3.60;;
4313;SDS011;2170;48.794;9.182;2024-03-23T02:40:18;5.97;;;4.10;;
4313;SDS011;2170;48.794;9.182;2024-03-23T02:42:44;3.87;;;3.57;;
4313;SDS011;2170;48.794;9.182;2024-03-23T02:45:11;4.23;;;3.87;;
4313;SDS011;2170;48.794;9.182;2024-03-23T02:47:37;3.90;;;3.60;;
4313;SDS011;2170;48.794;9.182;2024-03-23T02:50:04;6.50;;;3.70;;
4313;SDS011;2170;48.794;9.182;2024-03-23T02:52:30;4.20;;;3.90;;
4313;SDS011;2170;48.794;9.182;2024-03-23T02:54:57;4.20;;;3.90;;
4313;SDS011;2170;48.794;9.182;2024-03-23T02:57:25;3.90;;;3.60;;
4313;SDS011;2170;48.794;9.182;2024-03-23T02:59:52;4.00;;;3.70;;
4313;SDS011;2170;48.794;9.182;2024-03-23T03:02:17;4.80;;;3.30;;
4313;SDS011;2170;48.794;9.182;2024-03-23T03:04:44;3.80;;;3.40;;
4313;SDS011;2170;48.794;9.182;2024-03-23T03:07:10;3.90;;;3.70;;
4313;SDS011;2170;48.794;9.182;2024-03-23T03:09:36;4.20;;;3.80;;
4313;SDS011;2170;48.794;9.182;2024-03-23T03:12:04;4.07;;;3.33;;
4313;SDS011;2170;48.794;9.182;2024-03-23T03:14:32;3.90;;;3.60;;
4313;SDS011;2170;48.794;9.182;2024-03-23T03:16:58;4.13;;;3.63;;
4313;SDS011;2170;48.794;9.182;2024-03-23T03:19:25;3.40;;;3.20;;
4313;SDS011;2170;48.794;9.182;2024-03-23T03:21:50;5.90;;;3.83;;
4313;SDS011;2170;48.794;9.182;2024-03-23T03:24:17;3.70;;;3.50;;
4313;SDS011;2170;48.794;9.182;2024-03-23T03:26:43;3.83;;;3.30;;
4313;SDS011;2170;48.794;9.182;2024-03-23T03:29:10;3.60;;;3.30;;
4313;SDS011;2170;48.794;9.182;2024-03-23T03:31:38;3.70;;;3.40;;
4313;SDS011;2170;48.794;9.182;2024-03-23T03:34:05;4.07;;;3.47;;
4313;SDS011;2170;48.794;9.182;2024-03-23T03:36:31;4.07;;;3.70;;
4313;SDS011;2170;48.794;9.182;2024-03-23T03:38:57;4.50;;;3.43;;
4313;SDS011;2170;48.794;9.182;2024-03-23T03:41:23;3.60;;;3.30;;
4313;SDS011;2170;48.794;9.182;2024-03-23T03:43:50;3.30;;;3.10;;
4313;SDS011;2170;48.794;9.182;2024-03-23T03:46:15;3.97;;;3.67;;
4313;SDS011;2170;48.794;9.182;2024-03-23T03:48:43;7.47;;;3.40;;
4313;SDS011;2170;48.794;9.182;2024-03-23T03:51:10;3.60;;;3.40;;
4313;SDS011;2170;48.794;9.182;2024-03-23T03:53:37;3.73;;;3.47;;
4313;SDS011;2170;48.794;9.182;2024-03-23T03:56:03;3.90;;;3.60;;
4313;SDS011;2170;48.794;9.182;2024-03-23T03:58:30;4.20;;;3.60;;
4313;SDS011;2170;48.794;9.182;2024-03-23T04:00:55;3.70;;;3.40;;
4313;SDS011;2170;48.794;9.182;2024-03-23T04:03:22;3.93;;;3.30;;
4313;SDS011;2170;48.794;9.182;2024-03-23T04:05:51;4.80;;;3.30;;
4313;SDS011;2170;48.794;9.182;2024-03-23T04:08:18;4.27;;;3.50;;
4313;SDS011;2170;48.794;9.182;2024-03-23T04:10:44;3.50;;;3.20;;
4313;SDS011;2170;48.794;9.182;2024-03-23T04:13:11;3.93;;;3.67;;
4313;SDS011;2170;48.794;9.182;2024-03-23T04:15:37;3.90;;;3.60;;
4313;SDS011;2170;48.794;9.182;2024-03-23T04:18:04;4.40;;;4.10;;
4313;SDS011;2170;48.794;9.182;2024-03-23T04:20:30;4.90;;;3.73;;
4313;SDS011;2170;48.794;9.182;2024-03-23T04:22:58;4.27;;;3.87;;
4313;SDS011;2170;48.794;9.182;2024-03-23T04:25:24;6.83;;;3.47;;
4313;SDS011;2170;48.794;9.182;2024-03-23T04:27:51;3.63;;;3.40;;
4313;SDS011;2170;48.794;9.182;2024-03-23T04:30:17;4.00;;;3.70;;
4313;SDS011;2170;48.794;9.182;2024-03-23T04:32:44;3.50;;;3.30;;
4313;SDS011;2170;48.794;9.182;2024-03-23T04:35:10;3.77;;;3.47;;
4313;SDS011;2170;48.794;9.182;2024-03-23T04:37:38;4.80;;;4.50;;
4313;SDS011;2170;48.794;9.182;2024-03-23T04:40:07;4.60;;;4.20;;
4313;SDS011;2170;48.794;9.182;2024-03-23T04:42:36;4.77;;;4.37;;
4313;SDS011;2170;48.794;9.182;2024-03-23T04:45:03;4.97;;;4.57;;
4313;SDS011;2170;48.794;9.182;2024-03-23T04:47:32;5.77;;;5.27;;
4313;SDS011;2170;48.794;9.182;2024-03-23T04:50:00;5.23;;;4.77;;
4313;SDS011;2170;48.794;9.182;2024-03-23T04:52:28;5.90;;;5.37;;
4313;SDS011;2170;48.794;9.182;2024-03-23T04:54:54;6.03;;;5.43;;
4313;SDS011;2170;48.794;9.182;2024-03-23T04:57:21;6.07;;;5.57;;
4313;SDS011;2170;48.794;9.182;2024-03-23T04:59:48;6.67;;;6.07;;
4313;SDS011;2170;48.794;9.182;2024-03-23T05:02:14;6.53;;;5.93;;
4313;SDS011;2170;48.794;9.182;2024-03-23T05:04:41;7.73;;;7.13;;
4313;SDS011;2170;48.794;9.182;2024-03-23T05:07:07;9.80;;;9.00;;
4313;SDS011;2170;48.794;9.182;2024-03-23T05:09:34;9.93;;;9.00;;
4313;SDS011;2170;48.794;9.182;2024-03-23T05:11:59;9.83;;;8.93;;
4313;SDS011;2170;48.794;9.182;2024-03-23T05:14:27;10.57;;;9.53;;
4313;SDS011;2170;48.794;9.182;2024-03-23T05:16:53;12.40;;;11.00;;
4313;SDS011;2170;48.794;9.182;2024-03-23T05:19:20;12.10;;;10.90;;
4313;SDS011;2170;48.794;9.182;2024-03-23T05:21:47;13.80;;;12.40;;
4313;SDS011;2170;48.794;9.182;2024-03-23T05:24:14;15.57;;;14.07;;
4313;SDS011;2170;48.794;9.182;2024-03-23T05:26:39;15.80;;;14.10;;
4313;SDS011;2170;48.794;9.182;2024-03-23T05:29:06;16.00;;;14.40;;
4313;SDS011;2170;48.794;9.182;2024-03-23T05:31:37;15.57;;;13.97;;
4313;SDS011;2170;48.794;9.182;2024-03-23T05:34:03;15.80;;;14.20;;
4313;SDS011;2170;48.794;9.182;2024-03-23T05:36:29;15.87;;;14.27;;
4313;SDS011;2170;48.794;9.182;2024-03-23T05:38:57;16.37;;;14.77;;
4313;SDS011;2170;48.794;9.182;2024-03-23T05:41:23;17.93;;;16.00;;
4313;SDS011;2170;48.794;9.182;2024-03-23T05:43:49;16.70;;;14.90;;
4313;SDS011;2170;48.794;9.182;2024-03-23T05:46:15;16.40;;;14.73;;
4313;SDS011;2170;48.794;9.182;2024-03-23T05:48:44;18.43;;;14.10;;
4313;SDS011;2170;48.794;9.182;2024-03-23T05:51:10;15.70;;;13.93;;
4313;SDS011;2170;48.794;9.182;2024-03-23T05:53:37;13.90;;;12.50;;
4313;SDS011;2170;48.794;9.182;2024-03-23T05:56:03;11.97;;;10.77;;
4313;SDS011;2170;48.794;9.182;2024-03-23T05:58:31;11.20;;;9.97;;
4313;SDS011;2170;48.794;9.182;2024-03-23T06:00:57;8.63;;;7.80;;
4313;SDS011;2170;48.794;9.182;2024-03-23T06:03:25;5.90;;;5.30;;
4313;SDS011;2170;48.794;9.182;2024-03-23T06:05:52;5.20;;;4.57;;
4313;SDS011;2170;48.794;9.182;2024-03-23T06:08:19;5.53;;;4.83;;
4313;SDS011;2170;48.794;9.182;2024-03-23T06:10:44;9.23;;;4.63;;
4313;SDS011;2170;48.794;9.182;2024-03-23T06:13:11;3.90;;;3.50;;
4313;SDS011;2170;48.794;9.182;2024-03-23T06:15:37;4.13;;;3.83;;
4313;SDS011;2170;48.794;9.182;2024-03-23T06:18:04;3.40;;;3.10;;
4313;SDS011;2170;48.794;9.182;2024-03-23T06:20:32;4.27;;;3.80;;
4313;SDS011;2170;48.794;9.182;2024-03-23T06:23:00;3.77;;;3.47;;
4313;SDS011;2170;48.794;9.182;2024-03-23T06:25:26;3.40;;;3.10;;
4313;SDS011;2170;48.794;9.182;2024-03-23T06:27:53;4.30;;;3.10;;
4313;SDS011;2170;48.794;9.182;2024-03-23T06:30:20;4.37;;;3.20;;
4313;SDS011;2170;48.794;9.182;2024-03-23T06:32:46;2.90;;;2.70;;
4313;SDS011;2170;48.794;9.182;2024-03-23T06:35:12;2.30;;;2.10;;
4313;SDS011;2170;48.794;9.182;2024-03-23T06:37:38;2.60;;;2.40;;
4313;SDS011;2170;48.794;9.182;2024-03-23T06:40:08;5.10;;;2.27;;
4313;SDS011;2170;48.794;9.182;2024-03-23T06:42:35;2.20;;;2.10;;
4313;SDS011;2170;48.794;9.182;2024-03-23T06:45:01;1.80;;;1.70;;
4313;SDS011;2170;48.794;9.182;2024-03-23T06:47:29;1.60;;;1.50;;
4313;SDS011;2170;48.794;9.182;2024-03-23T06:49:56;1.40;;;1.40;;
4313;SDS011;2170;48.794;9.182;2024-03-23T06:52:22;1.50;;;1.40;;
4313;SDS011;2170;48.794;9.182;2024-03-23T06:54:49;1.30;;;1.30;;
4313;SDS011;2170;48.794;9.182;2024-03-23T06:57:16;1.67;;;1.57;;
4313;SDS011;2170;48.794;9.182;2024-03-23T06:59:42;1.30;;;1.30;;
4313;SDS011;2170;48.794;9.182;2024-03-23T07:02:08;1.30;;;1.20;;
4313;SDS011;2170;48.794;9.182;2024-03-23T07:04:35;1.20;;;1.20;;
4313;SDS011;2170;48.794;9.182;2024-03-23T07:07:01;1.47;;;1.37;;
4313;SDS011;2170;48.794;9.182;2024-03-23T07:09:27;1.00;;;0.90;;
4313;SDS011;2170;48.794;9.182;2024-03-23T07:11:53;0.97;;;0.97;;
4313;SDS011;2170;48.794;9.182;2024-03-23T07:14:22;0.97;;;0.97;;
4313;SDS011;2170;48.794;9.182;2024-03-23T07:16:48;0.80;;;0.80;;
4313;SDS011;2170;48.794;9.182;2024-03-23T07:19:16;0.97;;;0.97;;
4313;SDS011;2170;48.794;9.182;2024-03-23T07:21:42;0.83;;;0.83;;
4313;SDS011;2170;48.794;9.182;2024-03-23T07:24:09;0.87;;;0.87;;
4313;SDS011;2170;48.794;9.182;2024-03-23T07:26:35;0.70;;;0.70;;
4313;SDS011;2170;48.794;9.182;2024-03-23T07:29:02;0.80;;;0.80;;
4313;SDS011;2170;48.794;9.182;2024-03-23T07:31:30;0.80;;;0.80;;
4313;SDS011;2170;48.794;9.182;2024-03-23T07:33:56;0.53;;;0.53;;
4313;SDS011;2170;48.794;9.182;2024-03-23T07:36:22;0.90;;;0.90;;
4313;SDS011;2170;48.794;9.182;2024-03-23T07:38:49;0.83;;;0.83;;
4313;SDS011;2170;48.794;9.182;2024-03-23T07:41:16;0.70;;;0.70;;
4313;SDS011;2170;48.794;9.182;2024-03-23T07:43:43;0.70;;;0.70;;
4313;SDS011;2170;48.794;9.182;2024-03-23T07:46:10;0.90;;;0.90;;
4313;SDS011;2170;48.794;9.182;2024-03-23T07:48:39;0.93;;;0.93;;
4313;SDS011;2170;48.794;9.182;2024-03-23T07:51:07;0.90;;;0.87;;
4313;SDS011;2170;48.794;9.182;2024-03-23T07:53:35;1.00;;;1.00;;
4313;SDS011;2170;48.794;9.182;2024-03-23T07:56:02;2.20;;;1.20;;
4313;SDS011;2170;48.794;9.182;2024-03-23T07:58:31;1.70;;;0.87;;
4313;SDS011;2170;48.794;9.182;2024-03-23T08:01:03;0.93;;;0.93;;
4313;SDS011;2170;48.794;9.182;2024-03-23T08:03:30;1.07;;;1.07;;
4313;SDS011;2170;48.794;9.182;2024-03-23T08:05:57;1.20;;;1.10;;
4313;SDS011;2170;48.794;9.182;2024-03-23T08:08:24;2.50;;;0.90;;
4313;SDS011;2170;48.794;9.182;2024-03-23T08:10:51;0.77;;;0.77;;
4313;SDS011;2170;48.794;9.182;2024-03-23T08:13:18;1.10;;;1.10;;
4313;SDS011;2170;48.794;9.182;2024-03-23T08:15:44;1.60;;;1.50;;
4313;SDS011;2170;48.794;9.182;2024-03-23T08:18:12;1.40;;;1.30;;
4313;SDS011;2170;48.794;9.182;2024-03-23T08:20:38;1.00;;;1.00;;
4313;SDS011;2170;48.794;9.182;2024-03-23T08:23:06;1.00;;;0.97;;
4313;SDS011;2170;48.794;9.182;2024-03-23T08:25:32;1.00;;;1.00;;
4313;SDS011;2170;48.794;9.182;2024-03-23T08:27:59;1.13;;;1.13;;
4313;SDS011;2170;48.794;9.182;2024-03-23T08:30:25;3.13;;;1.33;;
4313;SDS011;2170;48.794;9.182;2024-03-23T08:32:52;1.37;;;1.37;;
4313;SDS011;2170;48.794;9.182;2024-03-23T08:35:18;1.13;;;1.13;;
4313;SDS011;2170;48.794;9.182;2024-03-23T08:37:45;1.30;;;1.30;;
4313;SDS011;2170;48.794;9.182;2024-03-23T08:40:13;1.17;;;1.17;;
4313;SDS011;2170;48.794;9.182;2024-03-23T08:42:39;1.23;;;1.20;;
4313;SDS011;2170;48.794;9.182;2024-03-23T08:45:05;1.20;;;1.20;;
4313;SDS011;2170;48.794;9.182;2024-03-23T08:47:34;1.40;;;1.40;;
4313;SDS011;2170;48.794;9.182;2024-03-23T08:50:00;1.80;;;1.70;;
4313;SDS011;2170;48.794;9.182;2024-03-23T08:52:27;1.23;;;1.23;;
4313;SDS011;2170;48.794;9.182;2024-03-23T08:54:54;1.50;;;1.50;;
4313;SDS011;2170;48.794;9.182;2024-03-23T08:57:23;2.53;;;1.60;;
4313;SDS011;2170;48.794;9.182;2024-03-23T08:59:49;6.20;;;2.10;;
4313;SDS011;2170;48.794;9.182;2024-03-23T09:02:15;3.87;;;2.40;;
4313;SDS011;2170;48.794;9.182;2024-03-23T09:04:41;6.10;;;2.53;;
4313;SDS011;2170;48.794;9.182;2024-03-23T09:07:08;3.43;;;3.13;;
4313;SDS011;2170;48.794;9.182;2024-03-23T09:09:34;2.80;;;2.50;;
4313;SDS011;2170;48.794;9.182;2024-03-23T09:12:01;3.90;;;3.00;;
4313;SDS011;2170;48.794;9.182;2024-03-23T09:14:28;3.43;;;3.00;;
4313;SDS011;2170;48.794;9.182;2024-03-23T09:16:55;3.07;;;2.73;;
4313;SDS011;2170;48.794;9.182;2024-03-23T09:19:21;3.07;;;2.87;;
4313;SDS011;2170;48.794;9.182;2024-03-23T09:21:49;6.13;;;3.27;;
4313;SDS011;2170;48.794;9.182;2024-03-23T09:24:14;3.53;;;3.20;;
4313;SDS011;2170;48.794;9.182;2024-03-23T09:26:41;3.77;;;3.07;;
4313;SDS011;2170;48.794;9.182;2024-03-23T09:29:07;2.80;;;2.60;;
4313;SDS011;2170;48.794;9.182;2024-03-23T09:31:35;3.87;;;3.00;;
4313;SDS011;2170;48.794;9.182;2024-03-23T09:34:03;4.67;;;3.00;;
4313;SDS011;2170;48.794;9.182;2024-03-23T09:36:29;2.93;;;2.67;;
4313;SDS011;2170;48.794;9.182;2024-03-23T09:38:55;5.30;;;3.07;;
4313;SDS011;2170;48.794;9.182;2024-03-23T09:41:22;6.43;;;3.97;;
4313;SDS011;2170;48.794;9.182;2024-03-23T09:43:48;5.20;;;3.10;;
4313;SDS011;2170;48.794;9.182;2024-03-23T09:46:18;5.37;;;3.70;;
4313;SDS011;2170;48.794;9.182;2024-03-23T09:48:46;6.13;;;3.53;;
4313;SDS011;2170;48.794;9.182;2024-03-23T09:51:13;4.00;;;3.10;;
4313;SDS011;2170;48.794;9.182;2024-03-23T09:53:39;4.50;;;3.30;;
4313;SDS011;2170;48.794;9.182;2024-03-23T09:56:07;6.63;;;3.80;;
4313;SDS011;2170;48.794;9.182;2024-03-23T09:58:33;5.87;;;3.30;;
4313;SDS011;2170;48.794;9.182;2024-03-23T10:01:00;4.70;;;3.20;;
4313;SDS011;2170;48.794;9.182;2024-03-23T10:03:26;7.53;;;3.87;;
4313;SDS011;2170;48.794;9.182;2024-03-23T10:06:01;4.23;;;3.53;;
4313;SDS011;2170;48.794;9.182;2024-03-23T10:08:28;4.87;;;3.73;;
4313;SDS011;2170;48.794;9.182;2024-03-23T10:10:56;5.10;;;4.33;;
4313;SDS011;2170;48.794;9.182;2024-03-23T10:13:24;6.50;;;4.00;;
4313;SDS011;2170;48.794;9.182;2024-03-23T10:15:56;4.17;;;3.77;;
4313;SDS011;2170;48.794;9.182;2024-03-23T10:18:23;4.70;;;3.70;;
4313;SDS011;2170;48.794;9.182;2024-03-23T10:21:06;3.80;;;3.50;;
4313;SDS011;2170;48.794;9.182;2024-03-23T10:23:36;7.13;;;3.63;;
4313;SDS011;2170;48.794;9.182;2024-03-23T10:26:13;4.20;;;3.80;;
4313;SDS011;2170;48.794;9.182;2024-03-23T10:28:50;6.93;;;4.20;;
4313;SDS011;2170;48.794;9.182;2024-03-23T10:31:18;4.83;;;3.40;;
4313;SDS011;2170;48.794;9.182;2024-03-23T10:33:44;3.43;;;3.23;;
4313;SDS011;2170;48.794;9.182;2024-03-23T10:36:13;4.53;;;3.37;;
4313;SDS011;2170;48.794;9.182;2024-03-23T10:38:39;5.50;;;4.13;;
4313;SDS011;2170;48.794;9.182;2024-03-23T10:41:07;6.60;;;3.30;;
4313;SDS011;2170;48.794;9.182;2024-03-23T10:43:34;6.50;;;4.10;;
4313;SDS011;2170;48.794;9.182;2024-03-23T10:46:02;5.77;;;3.53;;
4313;SDS011;2170;48.794;9.182;2024-03-23T10:48:28;6.80;;;3.67;;
4313;SDS011;2170;48.794;9.182;2024-03-23T10:50:55;4.83;;;3.50;;
4313;SDS011;2170;48.794;9.182;2024-03-23T10:53:24;4.40;;;3.40;;
4313;SDS011;2170;48.794;9.182;2024-03-23T10:55:53;4.50;;;3.50;;
4313;SDS011;2170;48.794;9.182;2024-03-23T10:58:21;3.93;;;3.40;;
4313;SDS011;2170;48.794;9.182;2024-03-23T11:00:52;5.33;;;3.50;;
4313;SDS011;2170;48.794;9.182;2024-03-23T11:03:29;7.80;;;4.40;;
4313;SDS011;2170;48.794;9.182;2024-03-23T11:05:56;6.63;;;4.00;;
4313;SDS011;2170;48.794;9.182;2024-03-23T11:08:31;5.30;;;3.40;;
4313;SDS011;2170;48.794;9.182;2024-03-23T11:11:11;5.27;;;3.10;;
4313;SDS011;2170;48.794;9.182;2024-03-23T11:13:38;2.70;;;2.50;;
4313;SDS011;2170;48.794;9.182;2024-03-23T11:16:12;4.10;;;2.43;;
4313;SDS011;2170;48.794;9.182;2024-03-23T11:18:39;2.70;;;2.50;;
4313;SDS011;2170;48.794;9.182;2024-03-23T11:21:06;2.80;;;2.60;;
4313;SDS011;2170;48.794;9.182;2024-03-23T11:23:33;2.50;;;2.30;;
4313;SDS011;2170;48.794;9.182;2024-03-23T11:26:00;2.63;;;2.43;;
4313;SDS011;2170;48.794;9.182;2024-03-23T11:28:26;4.43;;;2.60;;
4313;SDS011;2170;48.794;9.182;2024-03-23T11:30:53;2.40;;;2.27;;
4313;SDS011;2170;48.794;9.182;2024-03-23T11:33:18;3.30;;;3.00;;
4313;SDS011;2170;48.794;9.182;2024-03-23T11:35:45;2.70;;;2.50;;
4313;SDS011;2170;48.794;9.182;2024-03-23T11:38:11;3.13;;;2.83;;
4313;SDS011;2170;48.794;9.182;2024-03-23T11:40:40;4.93;;;4.50;;
4313;SDS011;2170;48.794;9.182;2024-03-23T11:43:07;3.57;;;3.00;;
4313;SDS011;2170;48.794;9.182;2024-03-23T11:45:36;4.90;;;2.77;;
4313;SDS011;2170;48.794;9.182;2024-03-23T11:48:04;4.67;;;3.03;;
4313;SDS011;2170;48.794;9.182;2024-03-23T11:50:31;2.47;;;2.23;;
4313;SDS011;2170;48.794;9.182;2024-03-23T11:53:14;2.53;;;2.33;;
4313;SDS011;2170;48.794;9.182;2024-03-23T11:55:43;3.03;;;1.90;;
4313;SDS011;2170;48.794;9.182;2024-03-23T11:58:10;2.03;;;1.93;;
4313;SDS011;2170;48.794;9.182;2024-03-23T12:00:37;2.37;;;2.00;;
4313;SDS011;2170;48.794;9.182;2024-03-23T12:03:03;2.13;;;1.87;;
4313;SDS011;2170;48.794;9.182;2024-03-23T12:05:31;4.17;;;2.50;;
4313;SDS011;2170;48.794;9.182;2024-03-23T12:10:47;3.13;;;1.73;;
4313;SDS011;2170;48.794;9.182;2024-03-23T12:13:14;2.67;;;2.20;;
4313;SDS011;2170;48.794;9.182;2024-03-23T12:15:45;2.33;;;1.73;;
4313;SDS011;2170;48.794;9.182;2024-03-23T12:18:12;5.63;;;2.30;;
4313;SDS011;2170;48.794;9.182;2024-03-23T12:20:39;1.97;;;1.73;;
4313;SDS011;2170;48.794;9.182;2024-03-23T12:23:06;3.40;;;2.03;;
4313;SDS011;2170;48.794;9.182;2024-03-23T12:25:34;5.20;;;2.00;;
4313;SDS011;2170;48.794;9.182;2024-03-23T12:28:01;4.40;;;2.33;;
4313;SDS011;2170;48.794;9.182;2024-03-23T12:30:31;4.00;;;2.23;;
4313;SDS011;2170;48.794;9.182;2024-03-23T12:32:57;6.40;;;2.33;;
4313;SDS011;2170;48.794;9.182;2024-03-23T12:35:23;5.30;;;2.67;;
4313;SDS011;2170;48.794;9.182;2024-03-23T12:37:49;6.20;;;2.40;;
4313;SDS011;2170;48.794;9.182;2024-03-23T12:40:16;5.03;;;2.53;;
4313;SDS011;2170;48.794;9.182;2024-03-23T12:42:42;4.70;;;2.43;;
4313;SDS011;2170;48.794;9.182;2024-03-23T12:45:10;7.70;;;2.40;;
4313;SDS011;2170;48.794;9.182;2024-03-23T12:47:35;2.60;;;2.40;;
4313;SDS011;2170;48.794;9.182;2024-03-23T12:50:02;4.87;;;2.73;;
4313;SDS011;2170;48.794;9.182;2024-03-23T12:52:28;5.40;;;2.37;;
4313;SDS011;2170;48.794;9.182;2024-03-23T12:54:55;4.73;;;2.27;;
4313;SDS011;2170;48.794;9.182;2024-03-23T12:57:21;5.50;;;2.83;;
4313;SDS011;2170;48.794;9.182;2024-03-23T12:59:49;4.70;;;2.50;;
4313;SDS011;2170;48.794;9.182;2024-03-23T13:02:18;3.37;;;3.07;;
4313;SDS011;2170;48.794;9.182;2024-03-23T13:04:45;3.30;;;2.70;;
4313;SDS011;2170;48.794;9.182;2024-03-23T13:07:12;6.47;;;2.50;;
4313;SDS011;2170;48.794;9.182;2024-03-23T13:09:39;7.20;;;2.60;;
4313;SDS011;2170;48.794;9.182;2024-03-23T13:12:05;4.50;;;2.80;;
4313;SDS011;2170;48.794;9.182;2024-03-23T13:14:32;4.27;;;2.70;;
4313;SDS011;2170;48.794;9.182;2024-03-23T13:16:58;2.50;;;2.33;;
4313;SDS011;2170;48.794;9.182;2024-03-23T13:19:26;4.57;;;2.73;;
4313;SDS011;2170;48.794;9.182;2024-03-23T13:21:53;5.23;;;2.30;;
4313;SDS011;2170;48.794;9.182;2024-03-23T13:24:21;4.27;;;2.50;;
4313;SDS011;2170;48.794;9.182;2024-03-23T13:26:48;6.83;;;2.33;;
4313;SDS011;2170;48.794;9.182;2024-03-23T13:29:16;2.40;;;2.17;;
4313;SDS011;2170;48.794;9.182;2024-03-23T13:31:41;5.93;;;3.17;;
4313;SDS011;2170;48.794;9.182;2024-03-23T13:34:08;3.87;;;2.53;;
4313;SDS011;2170;48.794;9.182;2024-03-23T13:36:36;2.80;;;2.23;;
4313;SDS011;2170;48.794;9.182;2024-03-23T13:39:02;5.00;;;2.30;;
4313;SDS011;2170;48.794;9.182;2024-03-23T13:41:31;2.97;;;2.10;;
4313;SDS011;2170;48.794;9.182;2024-03-23T13:43:58;5.87;;;2.07;;
4313;SDS011;2170;48.794;9.182;2024-03-23T13:46:24;2.70;;;2.17;;
4313;SDS011;2170;48.794;9.182;2024-03-23T13:48:50;7.03;;;2.00;;
4313;SDS011;2170;48.794;9.182;2024-03-23T13:51:22;5.33;;;2.17;;
4313;SDS011;2170;48.794;9.182;2024-03-23T13:53:51;4.57;;;2.57;;
4313;SDS011;2170;48.794;9.182;2024-03-23T13:56:18;3.10;;;1.83;;
4313;SDS011;2170;48.794;9.182;2024-03-23T13:58:44;3.07;;;1.60;;
4313;SDS011;2170;48.794;9.182;2024-03-23T14:01:12;3.63;;;2.40;;
4313;SDS011;2170;48.794;9.182;2024-03-23T14:03:38;3.97;;;2.30;;
4313;SDS011;2170;48.794;9.182;2024-03-23T14:06:05;5.03;;;1.83;;
4313;SDS011;2170;48.794;9.182;2024-03-23T14:08:32;3.27;;;1.50;;
4313;SDS011;2170;48.794;9.182;2024-03-23T14:11:02;2.40;;;1.70;;
4313;SDS011;2170;48.794;9.182;2024-03-23T14:13:29;2.40;;;1.57;;
4313;SDS011;2170;48.794;9.182;2024-03-23T14:15:56;5.40;;;2.00;;
4313;SDS011;2170;48.794;9.182;2024-03-23T14:18:21;2.93;;;2.00;;
4313;SDS011;2170;48.794;9.182;2024-03-23T14:20:48;2.20;;;2.00;;
4313;SDS011;2170;48.794;9.182;2024-03-23T14:23:14;2.13;;;1.57;;
4313;SDS011;2170;48.794;9.182;2024-03-23T14:25:41;3.10;;;1.43;;
4313;SDS011;2170;48.794;9.182;2024-03-23T14:28:08;1.60;;;1.40;;
4313;SDS011;2170;48.794;9.182;2024-03-23T14:30:39;4.53;;;1.70;;
4313;SDS011;2170;48.794;9.182;2024-03-23T14:33:05;1.80;;;1.30;;
4313;SDS011;2170;48.794;9.182;2024-03-23T14:35:32;1.60;;;1.33;;
4313;SDS011;2170;48.794;9.182;2024-03-23T14:37:58;1.60;;;1.20;;
4313;SDS011;2170;48.794;9.182;2024-03-23T14:40:24;1.37;;;1.30;;
4313;SDS011;2170;48.794;9.182;2024-03-23T14:42:52;2.03;;;1.23;;
4313;SDS011;2170;48.794;9.182;2024-03-23T14:45:20;2.57;;;1.43;;
4313;SDS011;2170;48.794;9.182;2024-03-23T14:47:46;2.70;;;1.50;;
4313;SDS011;2170;48.794;9.182;2024-03-23T14:50:13;2.30;;;1.17;;
4313;SDS011;2170;48.794;9.182;2024-03-23T14:52:40;2.53;;;1.60;;
4313;SDS011;2170;48.794;9.182;2024-03-23T14:55:07;2.60;;;1.60;;
4313;SDS011;2170;48.794;9.182;2024-03-23T14:57:34;1.43;;;1.33;;
4313;SDS011;2170;48.794;9.182;2024-03-23T15:00:01;2.83;;;1.73;;
4313;SDS011;2170;48.794;9.182;2024-03-23T15:02:31;4.43;;;1.70;;
4313;SDS011;2170;48.794;9.182;2024-03-23T15:04:58;2.37;;;1.73;;
4313;SDS011;2170;48.794;9.182;2024-03-23T15:07:24;4.20;;;1.80;;
4313;SDS011;2170;48.794;9.182;2024-03-23T15:09:51;2.10;;;1.67;;
4313;SDS011;2170;48.794;9.182;2024-03-23T15:12:18;3.13;;;1.77;;
4313;SDS011;2170;48.794;9.182;2024-03-23T15:14:46;1.43;;;1.33;;
4313;SDS011;2170;48.794;9.182;2024-03-23T15:17:12;2.30;;;1.33;;
4313;SDS011;2170;48.794;9.182;2024-03-23T15:19:40;1.17;;;1.07;;
4313;SDS011;2170;48.794;9.182;2024-03-23T15:22:07;1.60;;;1.20;;
4313;SDS011;2170;48.794;9.182;2024-03-23T15:24:35;2.13;;;1.13;;
4313;SDS011;2170;48.794;9.182;2024-03-23T15:27:01;1.30;;;1.20;;
4313;SDS011;2170;48.794;9.182;2024-03-23T15:29:28;4.10;;;1.17;;
4313;SDS011;2170;48.794;9.182;2024-03-23T15:31:54;1.10;;;1.10;;
4313;SDS011;2170;48.794;9.182;2024-03-23T15:34:21;4.33;;;1.50;;
4313;SDS011;2170;48.794;9.182;2024-03-23T15:36:48;1.43;;;1.13;;
4313;SDS011;2170;48.794;9.182;2024-03-23T15:39:16;1.37;;;1.27;;
4313;SDS011;2170;48.794;9.182;2024-03-23T15:41:43;1.50;;;1.40;;
4313;SDS011;2170;48.794;9.182;2024-03-23T15:44:10;1.87;;;1.73;;
4313;SDS011;2170;48.794;9.182;2024-03-23T15:46:36;1.90;;;1.17;;
4313;SDS011;2170;48.794;9.182;2024-03-23T15:49:03;1.00;;;1.00;;
4313;SDS011;2170;48.794;9.182;2024-03-23T15:51:29;1.60;;;1.17;;
4313;SDS011;2170;48.794;9.182;2024-03-23T15:53:59;1.33;;;1.10;;
4313;SDS011;2170;48.794;9.182;2024-03-23T15:56:25;2.00;;;1.60;;
4313;SDS011;2170;48.794;9.182;2024-03-23T15:58:51;3.97;;;1.57;;
4313;SDS011;2170;48.794;9.182;2024-03-23T16:01:17;1.93;;;1.40;;
4313;SDS011;2170;48.794;9.182;2024-03-23T16:03:44;1.47;;;1.37;;
4313;SDS011;2170;48.794;9.182;2024-03-23T16:06:10;2.40;;;1.20;;
4313;SDS011;2170;48.794;9.182;2024-03-23T16:08:36;1.83;;;1.40;;
4313;SDS011;2170;48.794;9.182;2024-03-23T16:11:04;1.97;;;1.30;;